createdAt,value
2019-06-27T00:01:57.031Z,15.10
2019-06-27T00:04:25.499Z,15.10
2019-06-27T00:06:53.987Z,15.10
2019-06-27T00:09:23.158Z,15.00
2019-06-27T00:11:51.624Z,15.00
2019-06-27T00:14:20.336Z,15.00
2019-06-27T00:16:49.020Z,15.00
2019-06-27T00:19:17.719Z,15.00
2019-06-27T00:21:46.163Z,14.90
2019-06-27T00:24:14.859Z,14.90
2019-06-27T00:26:56.133Z,14.90
2019-06-27T00:29:13.467Z,14.80
2019-06-27T00:31:41.894Z,14.90
2019-06-27T00:34:10.342Z,14.80
2019-06-27T00:36:38.782Z,14.90
2019-06-27T00:39:07.270Z,14.80
2019-06-27T00:41:35.698Z,14.80
2019-06-27T00:44:04.142Z,14.80
2019-06-27T00:46:32.584Z,14.80
2019-06-27T00:49:01.017Z,14.70
2019-06-27T00:51:29.470Z,14.70
2019-06-27T00:53:57.894Z,14.80
2019-06-27T00:56:26.338Z,14.80
2019-06-27T00:58:54.771Z,14.70
2019-06-27T01:01:23.220Z,14.70
2019-06-27T01:03:51.647Z,14.70
2019-06-27T01:06:20.087Z,14.70
2019-06-27T01:08:48.527Z,14.60
2019-06-27T01:11:16.975Z,14.60
2019-06-27T01:13:45.422Z,14.60
2019-06-27T01:16:13.982Z,14.70
2019-06-27T01:18:42.460Z,14.70
2019-06-27T01:21:10.907Z,14.60
2019-06-27T01:23:39.347Z,14.50
2019-06-27T01:26:07.807Z,14.60
2019-06-27T01:28:36.319Z,14.60
2019-06-27T01:31:04.767Z,14.60
2019-06-27T01:33:34.102Z,14.50
2019-06-27T01:36:02.578Z,14.50
2019-06-27T01:38:31.064Z,14.50
2019-06-27T01:40:59.780Z,14.50
2019-06-27T01:43:28.203Z,14.50
2019-06-27T01:45:58.515Z,14.50
2019-06-27T01:48:26.951Z,14.50
2019-06-27T01:50:55.387Z,14.50
2019-06-27T01:53:23.863Z,14.50
2019-06-27T01:55:52.306Z,14.50
2019-06-27T01:58:20.740Z,14.40
2019-06-27T02:00:49.191Z,14.40
2019-06-27T02:03:17.691Z,14.40
2019-06-27T02:05:46.380Z,14.40
2019-06-27T02:08:14.827Z,14.30
2019-06-27T02:10:43.334Z,14.30
2019-06-27T02:13:11.779Z,14.30
2019-06-27T02:15:44.866Z,14.30
2019-06-27T02:18:27.129Z,14.20
2019-06-27T02:20:55.670Z,14.20
2019-06-27T02:23:24.112Z,14.30
2019-06-27T02:25:52.552Z,14.30
2019-06-27T02:28:21.062Z,14.20
2019-06-27T02:30:49.509Z,14.20
2019-06-27T02:33:18.014Z,14.20
2019-06-27T02:35:46.712Z,14.20
2019-06-27T02:38:15.162Z,14.10
2019-06-27T02:40:43.858Z,14.20
2019-06-27T02:43:12.631Z,14.10
2019-06-27T02:45:41.060Z,14.20
2019-06-27T02:48:09.512Z,14.10
2019-06-27T02:50:38.223Z,14.10
2019-06-27T02:53:06.673Z,14.10
2019-06-27T02:55:35.111Z,14.00
2019-06-27T02:58:26.876Z,14.00
2019-06-27T03:00:33.771Z,14.00
2019-06-27T03:03:02.216Z,14.00
2019-06-27T03:05:30.667Z,14.00
2019-06-27T03:07:59.110Z,14.00
2019-06-27T03:10:27.541Z,14.00
2019-06-27T03:12:55.980Z,14.00
2019-06-27T03:15:24.424Z,14.00
2019-06-27T03:17:52.853Z,14.00
2019-06-27T03:20:21.305Z,14.10
2019-06-27T03:22:49.813Z,14.10
2019-06-27T03:25:18.264Z,14.10
2019-06-27T03:27:46.696Z,14.10
2019-06-27T03:30:15.738Z,14.10
2019-06-27T03:32:44.262Z,14.20
2019-06-27T03:35:12.784Z,14.20
2019-06-27T03:37:41.280Z,14.20
2019-06-27T03:40:10.268Z,14.20
2019-06-27T03:42:38.692Z,14.30
2019-06-27T03:45:07.379Z,14.30
2019-06-27T03:47:35.819Z,14.30
2019-06-27T03:50:05.319Z,14.30
2019-06-27T03:52:33.824Z,14.40
2019-06-27T03:55:02.271Z,14.40
2019-06-27T03:57:30.710Z,14.40
2019-06-27T03:59:59.147Z,14.40
2019-06-27T04:02:27.587Z,14.40
2019-06-27T04:04:56.668Z,14.40
2019-06-27T04:07:25.104Z,14.50
2019-06-27T04:09:53.548Z,14.50
2019-06-27T04:12:21.999Z,14.50
2019-06-27T04:14:50.444Z,14.50
2019-06-27T04:17:18.951Z,14.50
2019-06-27T04:19:47.412Z,14.50
2019-06-27T04:22:17.519Z,14.50
2019-06-27T04:24:46.077Z,14.60
2019-06-27T04:27:14.539Z,14.70
2019-06-27T04:29:43.042Z,14.70
2019-06-27T04:32:11.557Z,14.70
2019-06-27T04:34:40.086Z,14.70
2019-06-27T04:37:08.566Z,14.70
2019-06-27T04:39:37.048Z,14.80
2019-06-27T04:42:05.503Z,14.80
2019-06-27T04:44:34.012Z,14.90
2019-06-27T04:47:02.457Z,14.90
2019-06-27T04:49:30.900Z,14.90
2019-06-27T04:51:59.424Z,14.90
2019-06-27T04:54:27.943Z,14.90
2019-06-27T04:56:56.468Z,14.90
2019-06-27T04:59:24.966Z,14.90
2019-06-27T05:01:53.493Z,14.90
2019-06-27T05:04:21.995Z,14.90
2019-06-27T05:06:50.460Z,14.90
2019-06-27T05:09:18.899Z,15.00
2019-06-27T05:11:47.352Z,14.90
2019-06-27T05:14:15.809Z,14.80
2019-06-27T05:16:44.275Z,14.80
2019-06-27T05:19:12.707Z,14.80
2019-06-27T05:21:41.163Z,14.90
2019-06-27T05:24:09.684Z,14.90
2019-06-27T05:26:38.401Z,14.80
2019-06-27T05:29:06.895Z,14.90
2019-06-27T05:31:35.489Z,14.80
2019-06-27T05:34:04.179Z,14.90
2019-06-27T05:36:32.888Z,14.90
2019-06-27T05:39:01.343Z,14.90
2019-06-27T05:41:30.103Z,15.00
2019-06-27T05:43:58.806Z,15.20
2019-06-27T05:46:27.239Z,15.20
2019-06-27T05:48:55.699Z,15.20
2019-06-27T05:51:24.135Z,15.40
2019-06-27T05:53:52.581Z,15.30
2019-06-27T05:56:21.012Z,12.10
2019-06-27T05:58:51.958Z,15.40
2019-06-27T06:01:19.907Z,15.20
2019-06-27T06:03:48.395Z,15.10
2019-06-27T06:06:16.843Z,15.10
2019-06-27T06:08:45.552Z,15.10
2019-06-27T06:11:14.049Z,15.20
2019-06-27T06:13:42.753Z,15.20
2019-06-27T06:16:11.196Z,15.30
2019-06-27T06:18:39.635Z,15.30
2019-06-27T06:21:08.312Z,15.50
2019-06-27T06:23:36.848Z,15.50
2019-06-27T06:26:05.364Z,15.60
2019-06-27T06:28:33.869Z,15.70
2019-06-27T06:31:02.415Z,15.70
2019-06-27T06:33:31.137Z,15.50
2019-06-27T06:35:59.581Z,15.80
2019-06-27T06:38:28.036Z,19.30
2019-06-27T06:40:56.743Z,15.90
2019-06-27T06:43:25.186Z,15.80
2019-06-27T06:45:53.626Z,15.80
2019-06-27T06:48:22.409Z,15.90
2019-06-27T06:50:50.845Z,16.00
2019-06-27T06:53:19.547Z,16.20
2019-06-27T06:55:48.236Z,16.10
2019-06-27T06:58:16.685Z,16.00
2019-06-27T07:01:00.445Z,15.90
2019-06-27T07:03:15.475Z,15.80
2019-06-27T07:05:44.246Z,15.90
2019-06-27T07:08:12.687Z,16.10
2019-06-27T07:10:41.380Z,16.20
2019-06-27T07:13:09.811Z,16.20
2019-06-27T07:15:38.256Z,16.30
2019-06-27T07:18:06.691Z,16.40
2019-06-27T07:20:35.143Z,16.30
2019-06-27T07:23:03.571Z,16.20
2019-06-27T07:25:32.495Z,16.20
2019-06-27T07:28:01.295Z,16.30
2019-06-27T07:30:29.785Z,16.40
2019-06-27T07:32:58.478Z,16.50
2019-06-27T07:35:26.917Z,16.60
2019-06-27T07:37:55.593Z,16.60
2019-06-27T07:40:24.171Z,16.60
2019-06-27T07:42:52.605Z,16.70
2019-06-27T07:45:21.059Z,16.80
2019-06-27T07:47:49.498Z,16.70
2019-06-27T07:50:18.186Z,16.60
2019-06-27T07:52:46.640Z,16.50
2019-06-27T07:55:15.158Z,16.60
2019-06-27T07:57:43.588Z,16.70
2019-06-27T08:00:12.971Z,16.80
2019-06-27T08:02:41.415Z,16.90
2019-06-27T08:05:10.701Z,16.80
2019-06-27T08:07:39.144Z,16.80
2019-06-27T08:10:08.125Z,16.80
2019-06-27T08:12:36.555Z,16.90
2019-06-27T08:15:07.742Z,17.00
2019-06-27T08:17:36.173Z,17.00
2019-06-27T08:20:07.102Z,16.90
2019-06-27T08:22:35.542Z,16.80
2019-06-27T08:25:05.680Z,16.90
2019-06-27T08:27:34.113Z,17.00
2019-06-27T08:30:02.731Z,16.90
2019-06-27T08:32:31.426Z,16.80
2019-06-27T08:34:59.870Z,16.80
2019-06-27T08:37:28.325Z,16.80
2019-06-27T08:39:57.007Z,16.70
2019-06-27T08:42:25.470Z,16.70
2019-06-27T08:44:53.951Z,16.70
2019-06-27T08:47:22.470Z,16.70
2019-06-27T08:49:50.901Z,16.50
2019-06-27T08:52:19.609Z,16.50
2019-06-27T08:54:48.039Z,16.50
2019-06-27T08:57:16.483Z,16.60
2019-06-27T08:59:45.807Z,16.60
2019-06-27T09:02:14.419Z,16.70
2019-06-27T09:04:43.107Z,16.80
2019-06-27T09:07:11.555Z,16.90
2019-06-27T09:09:40.259Z,16.80
2019-06-27T09:12:08.714Z,16.80
2019-06-27T09:14:37.404Z,16.90
2019-06-27T09:17:05.846Z,16.80
2019-06-27T09:19:34.270Z,16.80
2019-06-27T09:22:02.722Z,16.80
2019-06-27T09:24:31.231Z,16.80
2019-06-27T09:26:59.685Z,16.90
2019-06-27T09:29:28.191Z,17.00
2019-06-27T09:31:56.628Z,17.00
2019-06-27T09:34:25.090Z,16.90
2019-06-27T09:36:53.613Z,16.70
2019-06-27T09:39:22.354Z,17.40
2019-06-27T09:41:50.793Z,16.60
2019-06-27T09:44:19.298Z,16.50
2019-06-27T09:46:47.744Z,16.40
2019-06-27T09:49:16.184Z,16.50
2019-06-27T09:51:44.628Z,16.40
2019-06-27T09:54:13.130Z,16.50
2019-06-27T09:56:41.571Z,16.70
2019-06-27T09:59:10.192Z,16.80
2019-06-27T10:01:38.879Z,16.90
2019-06-27T10:04:07.576Z,16.90
2019-06-27T10:06:36.200Z,17.00
2019-06-27T10:09:05.941Z,17.00
2019-06-27T10:11:34.354Z,17.00
2019-06-27T10:14:02.870Z,16.70
2019-06-27T10:16:31.328Z,16.70
2019-06-27T10:18:59.830Z,16.80
2019-06-27T10:21:28.268Z,16.90
2019-06-27T10:23:56.709Z,17.10
2019-06-27T10:26:25.173Z,17.20
2019-06-27T10:28:53.676Z,17.20
2019-06-27T10:31:22.109Z,17.20
2019-06-27T10:33:50.567Z,17.20
2019-06-27T10:36:18.998Z,17.30
2019-06-27T10:38:47.443Z,17.20
2019-06-27T10:41:15.874Z,17.20
2019-06-27T10:43:44.330Z,17.00
2019-06-27T10:46:13.013Z,17.10
2019-06-27T10:48:41.539Z,17.10
2019-06-27T10:51:10.231Z,17.20
2019-06-27T10:53:38.675Z,17.40
2019-06-27T10:56:07.165Z,17.50
2019-06-27T10:58:35.628Z,17.60
2019-06-27T11:01:04.391Z,17.60
2019-06-27T11:03:32.828Z,17.70
2019-06-27T11:06:01.312Z,17.60
2019-06-27T11:08:29.824Z,17.60
2019-06-27T11:10:58.303Z,17.50
2019-06-27T11:13:26.731Z,17.60
2019-06-27T11:15:55.191Z,17.70
2019-06-27T11:18:23.947Z,17.70
2019-06-27T11:20:52.697Z,17.90
2019-06-27T11:23:21.418Z,17.90
2019-06-27T11:25:49.942Z,17.90
2019-06-27T11:28:18.367Z,17.80
2019-06-27T11:30:47.080Z,17.70
2019-06-27T11:33:31.276Z,17.80
2019-06-27T11:35:45.945Z,18.00
2019-06-27T11:38:14.375Z,18.10
2019-06-27T11:40:42.817Z,18.00
2019-06-27T11:43:11.262Z,18.10
2019-06-27T11:45:40.061Z,18.10
2019-06-27T11:48:08.604Z,18.10
2019-06-27T11:50:37.108Z,18.00
2019-06-27T11:53:05.555Z,17.90
2019-06-27T11:55:34.075Z,17.90
2019-06-27T11:58:02.514Z,17.90
2019-06-27T12:00:31.015Z,18.00
2019-06-27T12:02:59.499Z,18.10
2019-06-27T12:05:27.935Z,18.30
2019-06-27T12:07:56.373Z,18.20
2019-06-27T12:10:24.826Z,18.10
2019-06-27T12:12:53.332Z,18.10
2019-06-27T12:15:21.788Z,18.00
2019-06-27T12:17:50.231Z,18.00
2019-06-27T12:20:18.710Z,18.10
2019-06-27T12:22:47.262Z,18.20
2019-06-27T12:25:15.931Z,18.20
2019-06-27T12:27:44.375Z,14.70
2019-06-27T12:30:13.059Z,18.30
2019-06-27T12:32:51.847Z,18.30
2019-06-27T12:35:11.791Z,18.50
2019-06-27T12:37:40.291Z,18.40
2019-06-27T12:40:09.201Z,18.00
2019-06-27T12:42:37.659Z,17.80
2019-06-27T12:45:07.892Z,17.70
2019-06-27T12:47:36.347Z,17.70
2019-06-27T12:50:07.525Z,17.80
2019-06-27T12:52:36.033Z,17.90
2019-06-27T12:55:04.707Z,18.00
2019-06-27T12:57:33.416Z,18.00
2019-06-27T13:00:01.875Z,18.00
2019-06-27T13:02:30.625Z,18.00
2019-06-27T13:04:59.062Z,18.20
2019-06-27T13:07:27.772Z,18.20
2019-06-27T13:09:56.218Z,18.10
2019-06-27T13:12:24.732Z,18.00
2019-06-27T13:14:53.427Z,17.90
2019-06-27T13:17:21.866Z,18.00
2019-06-27T13:19:51.842Z,17.90
2019-06-27T13:22:20.267Z,17.90
2019-06-27T13:24:48.971Z,17.80
2019-06-27T13:27:17.406Z,17.80
2019-06-27T13:29:45.847Z,17.80
2019-06-27T13:32:14.536Z,17.80
2019-06-27T13:34:42.989Z,17.80
2019-06-27T13:37:11.635Z,17.80
2019-06-27T13:39:40.384Z,17.70
2019-06-27T13:42:08.819Z,17.60
2019-06-27T13:44:37.263Z,17.60
2019-06-27T13:47:05.703Z,17.60
2019-06-27T13:49:34.225Z,17.60
2019-06-27T13:52:02.658Z,17.50
2019-06-27T13:54:31.183Z,17.50
2019-06-27T13:56:59.612Z,17.60
2019-06-27T13:59:28.056Z,17.40
2019-06-27T14:01:56.608Z,17.50
2019-06-27T14:04:25.201Z,17.40
2019-06-27T14:06:53.956Z,17.40
2019-06-27T14:09:23.872Z,17.40
2019-06-27T14:11:52.676Z,17.60
2019-06-27T14:14:21.170Z,17.60
2019-06-27T14:16:49.605Z,17.70
2019-06-27T14:19:18.397Z,17.80
2019-06-27T14:21:47.746Z,17.70
2019-06-27T14:24:17.614Z,17.60
2019-06-27T14:26:46.183Z,17.60
2019-06-27T14:29:14.618Z,17.70
2019-06-27T14:31:43.087Z,17.70
2019-06-27T14:34:11.588Z,17.70
2019-06-27T14:36:40.031Z,17.50
2019-06-27T14:39:08.476Z,17.30
2019-06-27T14:41:36.958Z,17.00
2019-06-27T14:44:05.445Z,16.90
2019-06-27T14:46:36.451Z,16.90
2019-06-27T14:49:04.139Z,16.90
2019-06-27T14:51:32.583Z,17.00
2019-06-27T14:54:01.027Z,17.00
2019-06-27T14:56:29.466Z,17.00
2019-06-27T14:58:57.899Z,17.10
2019-06-27T15:01:26.360Z,17.20
2019-06-27T15:03:54.874Z,17.40
2019-06-27T15:06:23.315Z,17.50
2019-06-27T15:08:52.027Z,17.40
2019-06-27T15:11:20.543Z,17.30
2019-06-27T15:13:48.982Z,17.30
2019-06-27T15:16:17.683Z,17.30
2019-06-27T15:18:46.388Z,17.30
2019-06-27T15:21:15.162Z,17.40
2019-06-27T15:23:43.856Z,17.40
2019-06-27T15:26:12.475Z,17.60
2019-06-27T15:28:40.904Z,17.70
2019-06-27T15:31:09.619Z,18.20
2019-06-27T15:33:38.055Z,18.40
2019-06-27T15:36:06.752Z,18.10
2019-06-27T15:38:35.451Z,17.80
2019-06-27T15:41:04.188Z,17.60
2019-06-27T15:43:32.639Z,17.60
2019-06-27T15:46:01.081Z,17.70
2019-06-27T15:48:29.792Z,17.80
2019-06-27T15:50:58.488Z,18.30
2019-06-27T15:53:26.940Z,18.60
2019-06-27T15:55:55.402Z,18.60
2019-06-27T15:58:23.973Z,18.20
2019-06-27T16:00:52.434Z,17.90
2019-06-27T16:03:20.949Z,17.80
2019-06-27T16:05:49.390Z,17.60
2019-06-27T16:08:17.831Z,17.70
2019-06-27T16:10:46.307Z,17.50
2019-06-27T16:13:14.758Z,17.50
2019-06-27T16:15:43.188Z,17.60
2019-06-27T16:18:11.940Z,17.90
2019-06-27T16:20:40.434Z,18.20
2019-06-27T16:23:08.884Z,18.10
2019-06-27T16:25:37.385Z,18.00
2019-06-27T16:28:05.840Z,17.80
2019-06-27T16:30:34.269Z,17.70
2019-06-27T16:33:02.720Z,17.70
2019-06-27T16:35:31.406Z,17.50
2019-06-27T16:37:59.851Z,17.50
2019-06-27T16:40:28.284Z,17.50
2019-06-27T16:42:56.727Z,17.50
2019-06-27T16:45:25.375Z,17.50
2019-06-27T16:47:54.085Z,17.60
2019-06-27T16:50:22.519Z,18.00
2019-06-27T16:52:50.969Z,18.50
2019-06-27T16:55:19.471Z,18.30
2019-06-27T16:57:48.108Z,18.20
2019-06-27T17:00:17.532Z,18.10
2019-06-27T17:02:45.956Z,18.10
2019-06-27T17:05:14.381Z,17.90
2019-06-27T17:07:42.836Z,17.70
2019-06-27T17:10:11.873Z,17.40
2019-06-27T17:12:40.303Z,17.30
2019-06-27T17:15:09.175Z,17.20
2019-06-27T17:17:37.680Z,17.30
2019-06-27T17:20:10.223Z,17.30
2019-06-27T17:22:38.652Z,17.30
2019-06-27T17:25:07.841Z,17.30
2019-06-27T17:27:36.296Z,17.10
2019-06-27T17:30:07.697Z,17.00
2019-06-27T17:32:36.189Z,20.40
2019-06-27T17:35:06.067Z,17.00
2019-06-27T17:37:34.557Z,17.00
2019-06-27T17:40:04.046Z,16.80
2019-06-27T17:42:32.472Z,16.90
2019-06-27T17:45:00.936Z,16.90
2019-06-27T17:47:29.436Z,17.00
2019-06-27T17:49:58.006Z,16.80
2019-06-27T17:52:26.501Z,16.70
2019-06-27T17:54:54.943Z,16.60
2019-06-27T17:57:23.377Z,16.60
2019-06-27T17:59:51.833Z,16.60
2019-06-27T18:02:20.265Z,16.60
2019-06-27T18:04:48.704Z,16.60
2019-06-27T18:07:17.138Z,16.70
2019-06-27T18:09:45.571Z,16.70
2019-06-27T18:12:14.013Z,16.70
2019-06-27T18:14:42.442Z,16.70
2019-06-27T18:17:10.914Z,16.70
2019-06-27T18:19:39.402Z,16.70
2019-06-27T18:22:07.848Z,16.70
2019-06-27T18:24:36.275Z,16.70
2019-06-27T18:27:04.713Z,16.70
2019-06-27T18:29:33.138Z,16.60
2019-06-27T18:32:01.630Z,16.60
2019-06-27T18:34:30.100Z,16.50
2019-06-27T18:36:58.553Z,16.50
2019-06-27T18:39:28.849Z,16.40
2019-06-27T18:41:57.323Z,16.40
2019-06-27T18:44:25.746Z,16.20
2019-06-27T18:46:54.203Z,16.20
2019-06-27T18:49:22.648Z,16.20
2019-06-27T18:51:51.093Z,16.20
2019-06-27T18:54:19.536Z,16.30
2019-06-27T18:56:48.146Z,16.30
2019-06-27T18:59:16.579Z,16.20
2019-06-27T19:01:45.284Z,16.20
2019-06-27T19:04:15.422Z,16.20
2019-06-27T19:06:43.868Z,16.10
2019-06-27T19:09:12.636Z,16.10
2019-06-27T19:11:41.083Z,16.10
2019-06-27T19:14:09.521Z,16.10
2019-06-27T19:16:38.026Z,16.10
2019-06-27T19:19:08.116Z,16.10
2019-06-27T19:21:41.107Z,16.00
2019-06-27T19:24:16.883Z,15.90
2019-06-27T19:26:46.706Z,15.90
2019-06-27T19:29:15.130Z,15.90
2019-06-27T19:31:43.563Z,15.80
2019-06-27T19:34:12.011Z,15.90
2019-06-27T19:36:40.444Z,15.80
2019-06-27T19:39:08.893Z,15.90
2019-06-27T19:41:37.328Z,15.80
2019-06-27T19:44:05.789Z,15.80
2019-06-27T19:46:34.280Z,15.80
2019-06-27T19:49:02.766Z,15.80
2019-06-27T19:51:31.198Z,15.80
2019-06-27T19:53:59.643Z,15.70
2019-06-27T19:56:28.070Z,15.60
2019-06-27T19:58:56.519Z,15.70
2019-06-27T20:01:24.950Z,15.70
2019-06-27T20:03:53.647Z,15.70
2019-06-27T20:06:22.079Z,15.70
2019-06-27T20:08:50.782Z,15.70
2019-06-27T20:11:19.470Z,15.70
2019-06-27T20:13:48.157Z,15.70
2019-06-27T20:16:16.843Z,15.70
2019-06-27T20:18:45.534Z,15.60
2019-06-27T20:21:13.963Z,15.60
2019-06-27T20:23:42.398Z,15.50
2019-06-27T20:26:11.083Z,15.50
2019-06-27T20:28:39.529Z,15.50
2019-06-27T20:31:08.206Z,15.50
2019-06-27T20:33:36.725Z,15.50
2019-06-27T20:36:05.302Z,15.50
2019-06-27T20:38:35.166Z,15.50
2019-06-27T20:41:03.909Z,15.40
2019-06-27T20:43:32.341Z,15.40
2019-06-27T20:46:00.785Z,15.30
2019-06-27T20:48:29.279Z,15.30
2019-06-27T20:50:57.715Z,15.30
2019-06-27T20:53:26.152Z,15.20
2019-06-27T20:55:54.595Z,15.20
2019-06-27T20:58:23.007Z,15.20
2019-06-27T21:00:51.788Z,15.10
2019-06-27T21:03:20.486Z,15.10
2019-06-27T21:05:49.174Z,15.10
2019-06-27T21:08:17.613Z,15.10
2019-06-27T21:10:46.054Z,15.10
2019-06-27T21:13:14.503Z,15.00
2019-06-27T21:15:43.001Z,15.00
2019-06-27T21:18:11.748Z,15.00
2019-06-27T21:20:40.198Z,15.00
2019-06-27T21:23:08.900Z,15.00
2019-06-27T21:25:37.590Z,15.00
2019-06-27T21:28:06.026Z,15.10
2019-06-27T21:30:34.457Z,15.10
2019-06-27T21:33:02.872Z,15.20
2019-06-27T21:35:31.557Z,15.10
2019-06-27T21:38:00.973Z,15.20
2019-06-27T21:40:29.657Z,15.20
2019-06-27T21:42:58.098Z,15.20
2019-06-27T21:45:26.788Z,15.20
2019-06-27T21:47:55.457Z,15.10
2019-06-27T21:50:23.893Z,15.10
2019-06-27T21:52:52.326Z,15.10
2019-06-27T21:55:20.831Z,15.10
2019-06-27T21:57:50.175Z,15.10
2019-06-27T22:00:19.046Z,15.10
2019-06-27T22:02:47.493Z,15.10
2019-06-27T22:05:16.140Z,15.10
2019-06-27T22:07:44.579Z,15.10
2019-06-27T22:10:13.298Z,15.10
2019-06-27T22:12:42.008Z,15.00
2019-06-27T22:15:10.643Z,15.00
2019-06-27T22:17:39.153Z,15.10
2019-06-27T22:20:15.219Z,15.10
2019-06-27T22:22:38.750Z,15.00
2019-06-27T22:25:07.659Z,14.90
2019-06-27T22:27:36.095Z,14.80
2019-06-27T22:30:06.560Z,14.90
2019-06-27T22:32:35.258Z,14.80
2019-06-27T22:35:04.657Z,14.90
2019-06-27T22:37:32.662Z,14.90
2019-06-27T22:40:19.014Z,14.90
2019-06-27T22:43:05.354Z,15.00
2019-06-27T22:45:51.701Z,14.90
2019-06-27T22:48:20.381Z,14.90
2019-06-27T22:50:51.082Z,14.80
2019-06-27T22:53:36.605Z,14.80
2019-06-27T22:56:05.220Z,14.90
2019-06-27T22:58:33.703Z,14.90
2019-06-27T23:01:02.467Z,14.90
2019-06-27T23:03:30.916Z,15.00
2019-06-27T23:05:59.359Z,15.10
2019-06-27T23:08:28.059Z,15.10
2019-06-27T23:10:56.498Z,15.10
2019-06-27T23:13:24.944Z,15.10
2019-06-27T23:15:53.386Z,15.10
2019-06-27T23:18:21.823Z,15.10
2019-06-27T23:20:50.251Z,15.10
2019-06-27T23:23:18.710Z,15.10
2019-06-27T23:25:47.147Z,15.10
2019-06-27T23:28:15.594Z,15.00
2019-06-27T23:30:44.019Z,15.00
2019-06-27T23:33:12.467Z,15.00
2019-06-27T23:35:40.978Z,15.00
2019-06-27T23:38:09.406Z,15.10
2019-06-27T23:40:37.854Z,15.00
2019-06-27T23:43:06.369Z,14.90
2019-06-27T23:45:34.807Z,14.90
2019-06-27T23:48:03.232Z,14.90
2019-06-27T23:50:31.758Z,14.90
2019-06-27T23:53:00.181Z,14.90
2019-06-27T23:55:28.626Z,14.80
2019-06-27T23:57:57.059Z,14.80
